KNFW

Fort Worth NAS JRB (Carswell Field) Airport

Fort Worth, Texas, USA
METAR KNFW 212152Z 10005KT 10SM FEW055 FEW250 37/14 A2986 RMK AO2 SLP096 T03720144 $
Observed Flight Rules
Jun-21 @ 21:52 UTC (14 minutes ago) Visual Flight Rules
Wind Visibility Clouds
100° at 5 knots 10 miles
  • Few at 5,500' AGL
  • Few at 25,000' AGL
Temperatures Readings
Current 37°C / 99°F
Dewpoint 14°C / 57°F
Humidity 25%
Altimeter 29.86" Hg
Pressure 1009.6 hPa
Elevation 198
METAR KNFW 212152Z 10005KT 10SM FEW055 FEW250 37/14 A2986 RMK AO2 SLP096 T03720144 $
Observed Flight Rules
Jun-21 @ 21:52 UTC
(14 minutes ago)
VFR
Wind Visibility
100° at 5 knots 10 miles
Clouds
  • Few at 5,500' AGL
  • Few at 25,000' AGL
Temperature Dewpoint
37°C / 99°F 14°C / 57°F
Humidity Altimeter Pressure
25% 29.86" Hg 1009.6 hPa